createdAt,value
2023-07-08T00:02:54.888Z,21.00
2023-07-08T00:06:56.621Z,21.00
2023-07-08T00:10:58.864Z,21.00
2023-07-08T00:15:00.907Z,21.00
2023-07-08T00:19:02.625Z,21.00
2023-07-08T00:23:04.636Z,21.00
2023-07-08T00:27:08.990Z,21.10
2023-07-08T00:31:14.962Z,21.10
2023-07-08T00:35:16.725Z,21.00
2023-07-08T00:39:18.495Z,21.00
2023-07-08T00:43:33.043Z,20.90
2023-07-08T00:47:34.860Z,21.00
2023-07-08T00:51:40.816Z,20.90
2023-07-08T00:55:42.832Z,20.90
2023-07-08T00:59:58.375Z,20.80
2023-07-08T01:04:08.901Z,20.70
2023-07-08T01:08:10.857Z,20.40
2023-07-08T01:12:24.777Z,20.20
2023-07-08T01:16:27.033Z,20.10
2023-07-08T01:20:28.824Z,20.00
2023-07-08T01:24:33.835Z,19.80
2023-07-08T01:28:36.767Z,19.70
2023-07-08T01:32:42.887Z,19.50
2023-07-08T01:36:53.861Z,19.30
2023-07-08T01:40:58.809Z,19.10
2023-07-08T01:45:00.877Z,19.10
2023-07-08T01:49:03.110Z,19.00
2023-07-08T01:53:12.114Z,19.00
2023-07-08T01:57:13.894Z,18.90
2023-07-08T02:01:15.795Z,18.80
2023-07-08T02:05:17.643Z,18.70
2023-07-08T02:09:19.708Z,18.60
2023-07-08T02:13:22.585Z,18.50
2023-07-08T02:17:24.497Z,18.30
2023-07-08T02:21:26.446Z,18.30
2023-07-08T02:25:28.232Z,18.20
2023-07-08T02:29:30.336Z,18.30
2023-07-08T02:33:33.632Z,18.20
2023-07-08T02:37:35.906Z,18.10
2023-07-08T02:41:38.312Z,18.00
2023-07-08T02:45:40.177Z,18.00
2023-07-08T02:49:42.007Z,17.90
2023-07-08T02:53:44.541Z,17.80
2023-07-08T02:57:46.544Z,17.90
2023-07-08T03:01:48.411Z,18.00
2023-07-08T03:05:58.303Z,18.00
2023-07-08T03:10:00.217Z,18.00
2023-07-08T03:14:02.249Z,18.00
2023-07-08T03:18:04.576Z,17.90
2023-07-08T03:22:07.934Z,17.90
2023-07-08T03:26:19.695Z,17.80
2023-07-08T03:30:21.445Z,17.70
2023-07-08T03:34:23.213Z,17.60
2023-07-08T03:38:25.016Z,17.60
2023-07-08T03:42:26.763Z,17.60
2023-07-08T03:46:28.643Z,17.70
2023-07-08T03:50:30.493Z,17.70
2023-07-08T03:54:32.268Z,17.80
2023-07-08T03:58:34.026Z,17.60
2023-07-08T04:02:36.694Z,17.50
2023-07-08T04:06:38.521Z,17.50
2023-07-08T04:10:40.318Z,17.40
2023-07-08T04:14:43.831Z,17.40
2023-07-08T04:18:45.843Z,17.40
2023-07-08T04:22:47.969Z,17.40
2023-07-08T04:26:49.816Z,17.30
2023-07-08T04:30:51.843Z,17.40
2023-07-08T04:34:53.779Z,17.50
2023-07-08T04:38:58.127Z,17.60
2023-07-08T04:43:00.850Z,17.60
2023-07-08T04:47:02.667Z,17.80
2023-07-08T04:51:04.449Z,18.00
2023-07-08T04:55:06.650Z,18.40
2023-07-08T04:59:20.226Z,18.70
2023-07-08T05:03:22.104Z,19.10
2023-07-08T05:07:23.936Z,19.70
2023-07-08T05:11:25.944Z,20.10
2023-07-08T05:15:27.800Z,20.60
2023-07-08T05:19:29.580Z,20.80
2023-07-08T05:23:31.342Z,20.80
2023-07-08T05:27:36.235Z,21.20
2023-07-08T05:31:47.165Z,21.80
2023-07-08T05:35:50.057Z,22.30
2023-07-08T05:39:55.017Z,23.00
2023-07-08T05:43:56.794Z,23.50
2023-07-08T05:47:58.630Z,24.20
2023-07-08T05:52:06.536Z,24.50
2023-07-08T05:56:08.288Z,25.00
2023-07-08T06:00:11.937Z,25.10
2023-07-08T06:04:14.046Z,25.60
2023-07-08T06:08:15.918Z,26.10
2023-07-08T06:12:17.659Z,26.20
2023-07-08T06:16:28.164Z,26.40
2023-07-08T06:20:41.099Z,26.90
2023-07-08T06:24:42.886Z,27.10
2023-07-08T06:28:44.670Z,27.60
2023-07-08T06:32:46.494Z,27.70
2023-07-08T06:36:48.319Z,27.80
2023-07-08T06:40:50.188Z,28.40
2023-07-08T06:44:53.577Z,28.70
2023-07-08T06:48:56.017Z,28.80
2023-07-08T06:52:57.753Z,29.20
2023-07-08T06:56:59.485Z,29.30
2023-07-08T07:01:01.746Z,29.30
2023-07-08T07:05:05.124Z,29.40
2023-07-08T07:09:06.930Z,29.60
2023-07-08T07:13:08.794Z,29.90
2023-07-08T07:17:10.662Z,30.00
2023-07-08T07:21:12.525Z,30.40
2023-07-08T07:25:14.319Z,30.20
2023-07-08T07:29:18.771Z,30.30
2023-07-08T07:33:20.588Z,30.10
2023-07-08T07:37:23.514Z,30.30
2023-07-08T07:41:25.269Z,30.20
2023-07-08T07:45:27.156Z,29.90
2023-07-08T07:49:28.976Z,29.40
2023-07-08T07:53:30.798Z,29.00
2023-07-08T07:57:32.538Z,28.60
2023-07-08T08:01:34.361Z,28.40
2023-07-08T08:05:36.178Z,28.50
2023-07-08T08:09:38.563Z,28.70
2023-07-08T08:13:40.384Z,29.00
2023-07-08T08:17:42.275Z,28.70
2023-07-08T08:21:44.108Z,28.40
2023-07-08T08:25:45.950Z,28.10
2023-07-08T08:29:47.785Z,28.80
2023-07-08T08:33:49.546Z,29.80
2023-07-08T08:37:51.487Z,30.30
2023-07-08T08:41:57.707Z,29.80
2023-07-08T08:46:06.170Z,30.00
2023-07-08T08:50:25.564Z,30.50
2023-07-08T08:54:27.613Z,31.30
2023-07-08T08:58:41.197Z,31.00
2023-07-08T09:02:52.246Z,31.20
2023-07-08T09:07:01.877Z,31.30
2023-07-08T09:11:38.521Z,32.10
2023-07-08T09:15:40.303Z,32.70
2023-07-08T09:20:18.085Z,32.90
2023-07-08T09:24:33.601Z,32.90
2023-07-08T09:28:44.292Z,33.50
2023-07-08T09:32:47.606Z,33.70
2023-07-08T09:36:51.870Z,33.90
2023-07-08T09:40:57.251Z,33.90
2023-07-08T09:45:02.652Z,33.70
2023-07-08T09:49:21.799Z,33.80
2023-07-08T09:53:23.657Z,34.10
2023-07-08T09:57:31.460Z,34.10
2023-07-08T10:01:33.675Z,34.60
2023-07-08T10:05:44.232Z,34.60
2023-07-08T10:09:51.485Z,33.60
2023-07-08T10:14:12.663Z,34.00
2023-07-08T10:18:17.587Z,34.20
2023-07-08T10:22:28.368Z,34.20
2023-07-08T10:26:33.842Z,34.20
2023-07-08T10:31:12.695Z,34.40
2023-07-08T10:35:20.227Z,34.30
2023-07-08T10:39:34.010Z,34.50
2023-07-08T10:43:56.368Z,34.50
2023-07-08T10:48:21.398Z,34.20
2023-07-08T10:52:38.472Z,34.50
2023-07-08T10:56:55.254Z,34.60
2023-07-08T11:01:24.533Z,34.70
2023-07-08T11:05:32.459Z,34.00
2023-07-08T11:09:49.887Z,34.00
2023-07-08T11:14:13.128Z,33.50
2023-07-08T11:18:20.486Z,33.90
2023-07-08T11:22:23.003Z,34.10
2023-07-08T11:26:32.988Z,34.20
2023-07-08T11:30:36.154Z,34.00
2023-07-08T11:34:39.281Z,34.10
2023-07-08T11:38:58.333Z,34.20
2023-07-08T11:43:09.460Z,33.40
2023-07-08T11:47:18.943Z,33.30
2023-07-08T11:51:25.437Z,33.60
2023-07-08T11:55:39.841Z,33.40
2023-07-08T11:59:42.847Z,34.10
2023-07-08T12:04:01.698Z,34.30
2023-07-08T12:08:11.870Z,34.50
2023-07-08T12:12:28.587Z,34.30
2023-07-08T12:16:32.405Z,34.60
2023-07-08T12:20:38.076Z,34.40
2023-07-08T12:24:41.793Z,34.70
2023-07-08T12:28:44.305Z,34.70
2023-07-08T12:32:47.411Z,34.80
2023-07-08T12:36:49.243Z,34.80
2023-07-08T12:40:51.586Z,35.00
2023-07-08T12:44:53.395Z,35.20
2023-07-08T12:48:55.390Z,35.30
2023-07-08T12:53:05.708Z,35.30
2023-07-08T12:57:10.339Z,35.10
2023-07-08T13:01:19.267Z,35.20
2023-07-08T13:05:21.209Z,35.10
2023-07-08T13:09:59.277Z,35.40
2023-07-08T13:14:05.654Z,34.60
2023-07-08T13:18:18.393Z,33.40
2023-07-08T13:22:22.910Z,34.80
2023-07-08T13:26:28.870Z,34.90
2023-07-08T13:30:32.316Z,35.30
2023-07-08T13:34:34.982Z,35.20
2023-07-08T13:38:39.357Z,35.20
2023-07-08T13:42:51.768Z,35.10
2023-07-08T13:46:56.984Z,35.30
2023-07-08T13:51:02.856Z,35.30
2023-07-08T13:55:19.393Z,34.90
2023-07-08T13:59:26.567Z,35.00
2023-07-08T14:03:28.588Z,35.30
2023-07-08T14:07:34.068Z,35.20
2023-07-08T14:11:35.987Z,34.70
2023-07-08T14:15:39.938Z,35.30
2023-07-08T14:19:41.756Z,35.10
2023-07-08T14:23:43.502Z,35.50
2023-07-08T14:27:45.355Z,35.00
2023-07-08T14:31:47.197Z,34.00
2023-07-08T14:35:49.101Z,33.80
2023-07-08T14:39:51.441Z,34.50
2023-07-08T14:43:53.362Z,34.40
2023-07-08T14:47:57.151Z,33.80
2023-07-08T14:51:59.017Z,33.50
2023-07-08T14:56:14.315Z,33.20
2023-07-08T15:00:18.664Z,33.30
2023-07-08T15:04:20.918Z,33.30
2023-07-08T15:08:22.699Z,33.40
2023-07-08T15:12:24.541Z,33.50
2023-07-08T15:16:26.427Z,33.50
2023-07-08T15:20:28.296Z,34.10
2023-07-08T15:24:30.078Z,34.20
2023-07-08T15:28:48.596Z,33.10
2023-07-08T15:32:50.823Z,32.60
2023-07-08T15:36:52.648Z,32.80
2023-07-08T15:40:54.503Z,32.70
2023-07-08T15:44:56.432Z,32.80
2023-07-08T15:48:58.202Z,32.60
2023-07-08T15:52:59.967Z,32.50
2023-07-08T15:57:05.610Z,32.10
2023-07-08T16:01:11.758Z,32.40
2023-07-08T16:05:13.511Z,32.40
2023-07-08T16:09:15.397Z,32.10
2023-07-08T16:13:23.309Z,32.10
2023-07-08T16:17:25.274Z,31.90
2023-07-08T16:21:27.010Z,32.00
2023-07-08T16:25:40.841Z,32.00
2023-07-08T16:29:43.048Z,31.90
2023-07-08T16:33:45.863Z,31.90
2023-07-08T16:37:49.445Z,31.70
2023-07-08T16:41:51.263Z,31.60
2023-07-08T16:45:53.182Z,31.50
2023-07-08T16:49:54.939Z,31.50
2023-07-08T16:54:01.446Z,31.60
2023-07-08T16:58:03.338Z,31.40
2023-07-08T17:02:16.314Z,31.30
2023-07-08T17:06:18.701Z,31.10
2023-07-08T17:10:21.313Z,30.90
2023-07-08T17:14:23.132Z,30.90
2023-07-08T17:18:25.431Z,30.90
2023-07-08T17:22:27.184Z,31.10
2023-07-08T17:26:28.950Z,31.10
2023-07-08T17:30:31.159Z,30.90
2023-07-08T17:34:33.925Z,30.80
2023-07-08T17:38:49.680Z,30.60
2023-07-08T17:42:52.934Z,30.40
2023-07-08T17:47:01.906Z,30.40
2023-07-08T17:51:03.946Z,30.20
2023-07-08T17:55:05.887Z,30.00
2023-07-08T17:59:16.528Z,29.80
2023-07-08T18:03:18.444Z,29.70
2023-07-08T18:07:20.348Z,29.70
2023-07-08T18:11:24.273Z,29.80
2023-07-08T18:15:30.235Z,29.50
2023-07-08T18:19:32.012Z,29.30
2023-07-08T18:23:35.783Z,29.30
2023-07-08T18:27:37.967Z,29.10
2023-07-08T18:31:42.566Z,28.70
2023-07-08T18:35:47.138Z,28.50
2023-07-08T18:39:48.934Z,28.20
2023-07-08T18:43:51.215Z,28.10
2023-07-08T18:47:53.105Z,27.90
2023-07-08T18:51:55.481Z,27.70
2023-07-08T18:55:57.276Z,27.70
2023-07-08T18:59:59.395Z,27.50
2023-07-08T19:04:01.392Z,27.30
2023-07-08T19:08:03.716Z,27.30
2023-07-08T19:12:09.238Z,27.10
2023-07-08T19:16:12.890Z,27.00
2023-07-08T19:20:14.756Z,26.90
2023-07-08T19:24:28.362Z,26.80
2023-07-08T19:28:38.635Z,26.60
2023-07-08T19:32:49.718Z,26.50
2023-07-08T19:36:51.617Z,26.30
2023-07-08T19:40:53.786Z,26.10
2023-07-08T19:44:55.674Z,26.00
2023-07-08T19:48:57.534Z,25.90
2023-07-08T19:52:59.449Z,25.80
2023-07-08T19:57:09.587Z,25.40
2023-07-08T20:01:11.908Z,25.10
2023-07-08T20:05:14.233Z,24.80
2023-07-08T20:09:16.531Z,24.60
2023-07-08T20:13:18.740Z,24.30
2023-07-08T20:17:21.310Z,24.10
2023-07-08T20:21:24.279Z,23.80
2023-07-08T20:25:26.165Z,23.70
2023-07-08T20:29:27.951Z,23.50
2023-07-08T20:33:29.752Z,23.50
2023-07-08T20:37:31.662Z,23.30
2023-07-08T20:41:34.276Z,23.20
2023-07-08T20:45:36.327Z,23.00
2023-07-08T20:49:38.161Z,22.90
2023-07-08T20:53:39.962Z,22.70
2023-07-08T20:57:43.924Z,22.50
2023-07-08T21:01:45.799Z,22.40
2023-07-08T21:05:56.986Z,22.30
2023-07-08T21:09:58.772Z,22.30
2023-07-08T21:14:01.870Z,22.10
2023-07-08T21:18:04.035Z,21.90
2023-07-08T21:22:06.023Z,21.70
2023-07-08T21:26:29.754Z,21.60
2023-07-08T21:30:31.925Z,21.70
2023-07-08T21:34:33.880Z,21.60
2023-07-08T21:38:35.689Z,21.40
2023-07-08T21:42:37.561Z,21.40
2023-07-08T21:46:39.340Z,21.40
2023-07-08T21:50:51.891Z,21.20
2023-07-08T21:54:53.687Z,21.10
2023-07-08T21:58:55.817Z,20.90
2023-07-08T22:02:57.784Z,20.80
2023-07-08T22:07:02.092Z,20.70
2023-07-08T22:11:06.464Z,20.60
2023-07-08T22:15:18.818Z,20.40
2023-07-08T22:19:20.590Z,20.30
2023-07-08T22:23:22.339Z,20.20
2023-07-08T22:27:24.082Z,20.10
2023-07-08T22:31:33.125Z,20.00
2023-07-08T22:35:35.094Z,19.90
2023-07-08T22:39:36.861Z,19.90
2023-07-08T22:43:39.722Z,19.80
2023-07-08T22:47:42.156Z,19.80
2023-07-08T22:51:47.889Z,19.80
2023-07-08T22:55:49.714Z,19.80
2023-07-08T22:59:51.534Z,19.80
2023-07-08T23:03:53.439Z,19.80
2023-07-08T23:07:56.066Z,19.90
2023-07-08T23:11:57.931Z,19.90
2023-07-08T23:16:00.052Z,19.90
2023-07-08T23:20:01.871Z,19.90
2023-07-08T23:24:04.369Z,20.00
2023-07-08T23:28:06.262Z,20.00
2023-07-08T23:32:11.331Z,20.00
2023-07-08T23:36:22.322Z,20.00
2023-07-08T23:40:24.711Z,20.00
2023-07-08T23:44:28.669Z,20.00
2023-07-08T23:48:30.470Z,19.90
2023-07-08T23:52:32.312Z,19.80
2023-07-08T23:56:36.396Z,19.70
